Time;durP1;ratioP1;P1;durP2;ratioP2;P2;SDS_P1;SDS_P2;PMS_P1;PMS_P2;Temp;Humidity;BMP_temperature;BMP_pressure;BME280_temperature;BME280_humidity;BME280_pressure;Samples;Min_cycle;Max_cycle;Signal;HPM_P1;HPM_P2
2021/09/10 00:01:28;;;;;;;20.10;9.48;;;;;;;;;;1850064;77;21122;-50
2021/09/10 00:04:01;;;;;;;18.95;9.03;;;;;;;;;;1850013;77;21143;-50
2021/09/10 00:06:27;;;;;;;21.23;9.25;;;;;;;;;;1849557;77;21470;-49
2021/09/10 00:08:57;;;;;;;17.73;9.93;;;;;;;;;;1849929;77;21122;-49
2021/09/10 00:11:26;;;;;;;17.10;9.30;;;;;;;;;;1850062;77;21060;-50
2021/09/10 00:13:55;;;;;;;21.48;10.15;;;;;;;;;;1849985;77;21052;-51
2021/09/10 00:16:23;;;;;;;18.62;9.63;;;;;;;;;;1849963;77;21048;-51
2021/09/10 00:18:52;;;;;;;21.45;9.78;;;;;;;;;;1850029;77;21122;-51
2021/09/10 00:21:21;;;;;;;20.88;10.55;;;;;;;;;;1850069;77;21095;-48
2021/09/10 00:23:50;;;;;;;20.68;10.60;;;;;;;;;;1850150;77;21052;-50
2021/09/10 00:26:18;;;;;;;21.48;9.40;;;;;;;;;;1850140;77;21052;-51
2021/09/10 00:28:47;;;;;;;17.12;9.13;;;;;;;;;;1850129;77;21020;-51
2021/09/10 00:31:16;;;;;;;16.05;10.13;;;;;;;;;;1841524;77;21068;-50
2021/09/10 00:33:44;;;;;;;21.87;11.15;;;;;;;;;;1840750;78;21057;-50
2021/09/10 00:36:13;;;;;;;19.35;9.48;;;;;;;;;;1840611;78;21572;-50
2021/09/10 00:38:42;;;;;;;17.98;9.90;;;;;;;;;;1840641;78;21122;-50
2021/09/10 00:41:11;;;;;;;22.17;10.32;;;;;;;;;;1840623;78;21104;-49
2021/09/10 00:43:40;;;;;;;16.10;10.45;;;;;;;;;;1840640;78;21056;-51
2021/09/10 00:46:09;;;;;;;19.52;9.65;;;;;;;;;;1840682;78;21048;-51
2021/09/10 00:48:39;;;;;;;23.12;10.90;;;;;;;;;;1840691;78;21024;-49
2021/09/10 00:51:07;;;;;;;17.23;10.43;;;;;;;;;;1840727;78;21065;-51
2021/09/10 00:53:36;;;;;;;23.67;11.45;;;;;;;;;;1840762;78;21119;-51
2021/09/10 00:56:05;;;;;;;30.05;12.88;;;;;;;;;;1840656;78;21143;-48
2021/09/10 00:58:34;;;;;;;27.15;13.10;;;;;;;;;;1840741;78;21118;-49
2021/09/10 01:01:03;;;;;;;29.63;14.47;;;;;;;;;;1840701;78;21095;-50
2021/09/10 01:03:31;;;;;;;21.60;12.10;;;;;;;;;;1840618;78;21083;-49
2021/09/10 01:06:01;;;;;;;23.50;11.35;;;;;;;;;;1840599;78;21060;-51
2021/09/10 01:08:31;;;;;;;24.35;12.90;;;;;;;;;;1840641;78;21072;-51
2021/09/10 01:11:00;;;;;;;26.17;11.85;;;;;;;;;;1840698;78;21131;-51
2021/09/10 01:13:29;;;;;;;23.62;11.57;;;;;;;;;;1840659;78;21111;-50
2021/09/10 01:15:58;;;;;;;19.57;10.78;;;;;;;;;;1840672;78;21126;-49
2021/09/10 01:18:27;;;;;;;20.05;11.15;;;;;;;;;;1840711;78;21060;-51
2021/09/10 01:20:56;;;;;;;25.70;11.45;;;;;;;;;;1840704;78;21057;-50
2021/09/10 01:23:24;;;;;;;17.65;9.95;;;;;;;;;;1840621;77;21122;-50
2021/09/10 01:25:53;;;;;;;19.12;10.13;;;;;;;;;;1840561;78;21106;-50
2021/09/10 01:28:22;;;;;;;26.10;9.88;;;;;;;;;;1840570;78;21059;-50
2021/09/10 01:30:51;;;;;;;19.98;8.85;;;;;;;;;;1845759;77;21111;-50
2021/09/10 01:33:20;;;;;;;16.17;8.90;;;;;;;;;;1850104;77;21040;-50
2021/09/10 01:35:49;;;;;;;19.80;9.78;;;;;;;;;;1849962;77;21119;-50
2021/09/10 01:38:17;;;;;;;17.65;9.80;;;;;;;;;;1850147;77;21047;-51
2021/09/10 01:40:47;;;;;;;24.60;11.75;;;;;;;;;;1850097;77;21126;-49
2021/09/10 01:43:16;;;;;;;20.48;9.60;;;;;;;;;;1850028;77;21052;-49
2021/09/10 01:45:44;;;;;;;22.07;11.22;;;;;;;;;;1850093;77;21110;-50
2021/09/10 01:48:13;;;;;;;20.77;9.70;;;;;;;;;;1850051;77;21048;-50
2021/09/10 01:50:42;;;;;;;19.57;10.60;;;;;;;;;;1850186;77;21020;-51
2021/09/10 01:53:11;;;;;;;19.17;9.70;;;;;;;;;;1850160;77;21402;-51
2021/09/10 01:55:39;;;;;;;25.37;10.28;;;;;;;;;;1850130;77;21052;-50
2021/09/10 01:58:08;;;;;;;22.27;10.70;;;;;;;;;;1850046;77;21114;-50
2021/09/10 02:00:37;;;;;;;23.05;10.08;;;;;;;;;;1850054;77;21127;-50
2021/09/10 02:03:06;;;;;;;17.98;8.53;;;;;;;;;;1850143;77;21088;-50
2021/09/10 02:05:35;;;;;;;22.60;10.95;;;;;;;;;;1850078;77;21044;-50
2021/09/10 02:08:04;;;;;;;18.62;9.75;;;;;;;;;;1850080;77;21044;-50
2021/09/10 02:10:32;;;;;;;17.87;9.73;;;;;;;;;;1850111;77;21130;-51
2021/09/10 02:13:01;;;;;;;27.67;10.98;;;;;;;;;;1850043;77;21115;-49
2021/09/10 02:15:30;;;;;;;27.77;10.65;;;;;;;;;;1850030;77;21076;-50
2021/09/10 02:17:59;;;;;;;20.57;9.33;;;;;;;;;;1850148;77;21056;-50
2021/09/10 02:20:28;;;;;;;18.73;10.00;;;;;;;;;;1850023;77;21064;-51
2021/09/10 02:22:57;;;;;;;18.98;10.48;;;;;;;;;;1850010;77;21059;-50
2021/09/10 02:25:26;;;;;;;20.95;9.63;;;;;;;;;;1850042;77;21060;-50
2021/09/10 02:27:54;;;;;;;18.57;9.38;;;;;;;;;;1850053;77;21114;-51
2021/09/10 02:30:23;;;;;;;15.80;10.40;;;;;;;;;;1853061;77;21070;-51
2021/09/10 02:32:52;;;;;;;24.43;11.18;;;;;;;;;;1868675;77;21097;-50
2021/09/10 02:35:22;;;;;;;17.52;11.15;;;;;;;;;;1868610;77;21103;-51
2021/09/10 02:37:51;;;;;;;19.35;10.53;;;;;;;;;;1868604;77;21110;-50
2021/09/10 02:40:19;;;;;;;21.73;10.32;;;;;;;;;;1868571;77;21055;-51
2021/09/10 02:42:49;;;;;;;19.90;10.05;;;;;;;;;;1868562;77;21055;-51
2021/09/10 02:45:17;;;;;;;21.35;11.68;;;;;;;;;;1868541;76;21041;-50
2021/09/10 02:47:46;;;;;;;23.20;11.85;;;;;;;;;;1868664;77;21055;-50
2021/09/10 02:50:15;;;;;;;18.50;10.43;;;;;;;;;;1868619;77;21059;-50
2021/09/10 02:52:45;;;;;;;21.17;10.05;;;;;;;;;;1868559;77;21055;-51
2021/09/10 02:55:14;;;;;;;26.85;11.03;;;;;;;;;;1868649;77;21109;-49
2021/09/10 02:57:43;;;;;;;23.12;11.57;;;;;;;;;;1868656;77;21023;-51
2021/09/10 03:00:13;;;;;;;27.80;11.70;;;;;;;;;;1868532;77;21133;-50
2021/09/10 03:02:43;;;;;;;20.27;11.93;;;;;;;;;;1868595;77;21113;-50
2021/09/10 03:05:13;;;;;;;23.02;12.07;;;;;;;;;;1868550;76;21126;-49
2021/09/10 03:07:42;;;;;;;25.57;12.35;;;;;;;;;;1868591;77;21125;-50
2021/09/10 03:10:11;;;;;;;24.05;12.13;;;;;;;;;;1868667;77;21088;-51
2021/09/10 03:12:40;;;;;;;21.37;12.15;;;;;;;;;;1868698;77;21117;-49
2021/09/10 03:15:10;;;;;;;17.87;10.68;;;;;;;;;;1868692;77;21047;-50
2021/09/10 03:17:39;;;;;;;28.77;11.85;;;;;;;;;;1868550;77;21039;-51
2021/09/10 03:20:08;;;;;;;27.55;11.10;;;;;;;;;;1868581;77;21063;-51
2021/09/10 03:22:37;;;;;;;24.72;11.73;;;;;;;;;;1868681;77;21047;-51
2021/09/10 03:25:07;;;;;;;23.90;11.30;;;;;;;;;;1868589;77;21059;-50
2021/09/10 03:27:36;;;;;;;20.60;12.00;;;;;;;;;;1868654;77;21035;-51
2021/09/10 03:30:05;;;;;;;30.35;12.10;;;;;;;;;;1868618;77;21059;-51
2021/09/10 03:32:34;;;;;;;21.73;10.82;;;;;;;;;;1852529;76;21149;-50
2021/09/10 03:35:03;;;;;;;20.43;11.08;;;;;;;;;;1849946;77;21060;-51
2021/09/10 03:37:32;;;;;;;20.35;11.33;;;;;;;;;;1850101;77;21095;-50
2021/09/10 03:40:00;;;;;;;23.27;10.20;;;;;;;;;;1850033;77;21033;-51
2021/09/10 03:42:29;;;;;;;35.05;11.43;;;;;;;;;;1849967;77;21044;-50
2021/09/10 03:44:58;;;;;;;25.48;11.05;;;;;;;;;;1849905;77;21043;-51
2021/09/10 03:47:27;;;;;;;24.47;11.28;;;;;;;;;;1849955;77;21052;-50
2021/09/10 03:49:56;;;;;;;26.68;11.45;;;;;;;;;;1849954;77;21072;-51
2021/09/10 03:52:24;;;;;;;24.05;11.12;;;;;;;;;;1849890;77;21060;-51
2021/09/10 03:54:53;;;;;;;31.90;12.00;;;;;;;;;;1850041;77;21119;-51
2021/09/10 03:57:22;;;;;;;22.15;11.08;;;;;;;;;;1850053;77;21075;-50
2021/09/10 03:59:52;;;;;;;18.23;10.75;;;;;;;;;;1850113;77;21060;-50
2021/09/10 04:02:20;;;;;;;17.23;10.65;;;;;;;;;;1850197;77;21506;-50
2021/09/10 04:04:50;;;;;;;18.37;9.53;;;;;;;;;;1850096;77;21177;-49
2021/09/10 04:07:18;;;;;;;19.32;9.60;;;;;;;;;;1850087;77;21106;-51
2021/09/10 04:09:48;;;;;;;14.63;9.38;;;;;;;;;;1850106;77;21052;-51
2021/09/10 04:12:19;;;;;;;16.87;8.65;;;;;;;;;;1850388;77;21044;-51
2021/09/10 04:14:48;;;;;;;14.05;8.75;;;;;;;;;;1850196;77;21102;-50
2021/09/10 04:17:17;;;;;;;13.55;7.50;;;;;;;;;;1850057;77;21114;-48
2021/09/10 04:19:45;;;;;;;11.18;6.87;;;;;;;;;;1849987;77;21122;-50
2021/09/10 04:22:15;;;;;;;10.63;5.78;;;;;;;;;;1850216;77;21158;-49
2021/09/10 04:24:43;;;;;;;12.70;7.62;;;;;;;;;;1850084;77;21149;-50
2021/09/10 04:27:12;;;;;;;20.02;9.70;;;;;;;;;;1850132;77;21177;-49
2021/09/10 04:29:41;;;;;;;19.87;10.63;;;;;;;;;;1850098;77;21052;-51
2021/09/10 04:32:10;;;;;;;15.95;10.95;;;;;;;;;;1859275;77;21149;-50
2021/09/10 04:34:39;;;;;;;15.95;10.10;;;;;;;;;;1868649;77;21113;-51
2021/09/10 04:37:08;;;;;;;13.50;9.18;;;;;;;;;;1868578;77;21063;-50
2021/09/10 04:39:37;;;;;;;12.20;8.00;;;;;;;;;;1868659;77;21101;-50
2021/09/10 04:42:05;;;;;;;17.10;11.45;;;;;;;;;;1868646;77;21109;-51
2021/09/10 04:44:34;;;;;;;19.55;10.15;;;;;;;;;;1868609;76;21015;-51
2021/09/10 04:47:03;;;;;;;20.45;13.65;;;;;;;;;;1868627;76;21118;-51
2021/09/10 04:49:32;;;;;;;20.80;12.13;;;;;;;;;;1868647;77;21094;-49
2021/09/10 04:52:01;;;;;;;15.65;10.43;;;;;;;;;;1868590;77;21125;-51
2021/09/10 04:54:30;;;;;;;22.73;10.68;;;;;;;;;;1868746;77;21067;-51
2021/09/10 04:56:59;;;;;;;13.15;9.50;;;;;;;;;;1868715;77;21059;-51
2021/09/10 04:59:27;;;;;;;12.63;7.90;;;;;;;;;;1868606;76;21080;-51
2021/09/10 05:01:56;;;;;;;11.08;8.38;;;;;;;;;;1868715;77;21039;-51
2021/09/10 05:04:25;;;;;;;16.62;8.95;;;;;;;;;;1868644;77;21094;-50
2021/09/10 05:06:54;;;;;;;21.52;10.78;;;;;;;;;;1868614;77;21019;-50
2021/09/10 05:09:22;;;;;;;19.35;8.50;;;;;;;;;;1868617;77;21095;-50
2021/09/10 05:11:51;;;;;;;14.90;7.70;;;;;;;;;;1868553;77;21043;-51
2021/09/10 05:14:20;;;;;;;11.33;8.05;;;;;;;;;;1868802;76;21059;-51
2021/09/10 05:16:49;;;;;;;15.18;8.10;;;;;;;;;;1868736;77;21102;-51
2021/09/10 05:19:17;;;;;;;16.48;9.13;;;;;;;;;;1868694;77;21048;-51
2021/09/10 05:21:46;;;;;;;10.30;7.20;;;;;;;;;;1868688;77;21118;-51
2021/09/10 05:24:15;;;;;;;18.37;8.95;;;;;;;;;;1868560;77;21121;-49
2021/09/10 05:26:44;;;;;;;15.25;9.45;;;;;;;;;;1868512;77;21051;-51
2021/09/10 05:29:14;;;;;;;29.85;17.55;;;;;;;;;;1868632;77;21043;-51
2021/09/10 05:31:44;;;;;;;33.20;17.95;;;;;;;;;;1868445;77;21121;-50
2021/09/10 05:34:12;;;;;;;27.02;15.40;;;;;;;;;;1868538;77;21529;-51
2021/09/10 05:36:41;;;;;;;15.40;11.12;;;;;;;;;;1868623;77;21113;-51
2021/09/10 05:39:10;;;;;;;21.45;9.63;;;;;;;;;;1868634;77;21114;-51
2021/09/10 05:41:39;;;;;;;26.82;9.48;;;;;;;;;;1868573;77;21097;-50
2021/09/10 05:44:07;;;;;;;23.10;10.85;;;;;;;;;;1868565;77;21117;-51
2021/09/10 05:46:36;;;;;;;15.30;9.68;;;;;;;;;;1868570;77;21169;-49
2021/09/10 05:49:05;;;;;;;16.30;10.40;;;;;;;;;;1868641;77;21059;-51
2021/09/10 05:51:34;;;;;;;19.27;9.03;;;;;;;;;;1868599;77;21176;-51
2021/09/10 05:54:02;;;;;;;17.67;9.15;;;;;;;;;;1868482;77;21098;-48
2021/09/10 05:56:31;;;;;;;14.55;10.05;;;;;;;;;;1868588;77;21114;-49
2021/09/10 05:59:00;;;;;;;21.95;11.38;;;;;;;;;;1868527;77;21161;-48
2021/09/10 06:01:29;;;;;;;17.55;9.63;;;;;;;;;;1868520;77;21055;-50
2021/09/10 06:03:58;;;;;;;18.02;10.95;;;;;;;;;;1868568;77;21067;-51
2021/09/10 06:06:26;;;;;;;15.18;10.50;;;;;;;;;;1868495;77;21049;-50
2021/09/10 06:08:55;;;;;;;15.55;9.13;;;;;;;;;;1868551;77;21165;-51
2021/09/10 06:11:24;;;;;;;19.85;10.38;;;;;;;;;;1868484;77;21035;-46
2021/09/10 06:13:53;;;;;;;18.00;10.08;;;;;;;;;;1868687;77;21087;-50
2021/09/10 06:16:22;;;;;;;17.75;9.30;;;;;;;;;;1868685;77;21055;-51
2021/09/10 06:18:52;;;;;;;21.23;9.73;;;;;;;;;;1868579;77;21113;-52
2021/09/10 06:21:21;;;;;;;16.95;9.60;;;;;;;;;;1868469;76;21063;-49
2021/09/10 06:23:51;;;;;;;15.53;8.83;;;;;;;;;;1868722;77;21118;-50
2021/09/10 06:26:22;;;;;;;14.05;9.40;;;;;;;;;;1868627;77;21526;-51
2021/09/10 06:28:50;;;;;;;13.43;9.80;;;;;;;;;;1868675;77;21489;-51
2021/09/10 06:31:19;;;;;;;17.48;9.93;;;;;;;;;;1868670;77;21506;-50
2021/09/10 06:33:48;;;;;;;12.37;9.30;;;;;;;;;;1854381;77;21076;-48
2021/09/10 06:36:17;;;;;;;16.20;7.92;;;;;;;;;;1850102;77;21119;-51
2021/09/10 06:38:45;;;;;;;15.13;9.48;;;;;;;;;;1850044;77;21044;-49
2021/09/10 06:41:14;;;;;;;13.28;8.60;;;;;;;;;;1850142;77;21141;-48
2021/09/10 06:43:43;;;;;;;17.23;8.15;;;;;;;;;;1850214;77;21182;-50
2021/09/10 06:46:11;;;;;;;10.43;7.47;;;;;;;;;;1849968;77;21044;-51
2021/09/10 06:48:40;;;;;;;10.98;7.47;;;;;;;;;;1850053;77;21099;-48
2021/09/10 06:51:09;;;;;;;15.08;9.30;;;;;;;;;;1849884;77;21036;-51
2021/09/10 06:53:38;;;;;;;15.70;7.40;;;;;;;;;;1850026;77;21111;-48
2021/09/10 06:56:07;;;;;;;10.82;6.97;;;;;;;;;;1850095;77;21208;-51
2021/09/10 06:58:36;;;;;;;11.28;7.83;;;;;;;;;;1850182;77;21089;-50
2021/09/10 07:01:06;;;;;;;16.23;7.50;;;;;;;;;;1849948;77;21004;-51
2021/09/10 07:03:35;;;;;;;15.55;7.05;;;;;;;;;;1850028;77;21084;-50
2021/09/10 07:06:03;;;;;;;14.43;6.80;;;;;;;;;;1849963;77;21092;-48
2021/09/10 07:08:32;;;;;;;12.20;8.40;;;;;;;;;;1849949;77;21060;-49
2021/09/10 07:11:03;;;;;;;12.45;7.53;;;;;;;;;;1849906;77;21060;-47
2021/09/10 07:13:32;;;;;;;10.68;7.78;;;;;;;;;;1850093;77;21079;-51
2021/09/10 07:16:01;;;;;;;10.00;5.83;;;;;;;;;;1849913;77;21314;-51
2021/09/10 07:18:30;;;;;;;10.60;6.15;;;;;;;;;;1848595;77;21177;-46
2021/09/10 07:21:02;;;;;;;19.75;9.00;;;;;;;;;;1849461;77;21056;-48
2021/09/10 07:23:30;;;;;;;11.25;7.70;;;;;;;;;;1849246;77;21474;-47
2021/09/10 07:26:02;;;;;;;20.40;8.18;;;;;;;;;;1849211;77;21053;-47
2021/09/10 07:28:29;;;;;;;12.45;8.33;;;;;;;;;;1849241;77;21048;-46
2021/09/10 07:30:57;;;;;;;14.73;8.18;;;;;;;;;;1849397;77;21040;-48
2021/09/10 07:33:26;;;;;;;19.32;11.12;;;;;;;;;;1845402;77;21393;-48
2021/09/10 07:35:56;;;;;;;15.00;9.70;;;;;;;;;;1840054;78;21077;-49
2021/09/10 07:38:25;;;;;;;18.90;12.07;;;;;;;;;;1840029;78;21128;-48
2021/09/10 07:40:54;;;;;;;24.47;14.78;;;;;;;;;;1839871;78;21065;-47
2021/09/10 07:43:22;;;;;;;22.45;12.25;;;;;;;;;;1840016;78;21107;-45
2021/09/10 07:45:51;;;;;;;23.67;13.60;;;;;;;;;;1839845;78;21064;-45
2021/09/10 07:48:20;;;;;;;22.10;12.20;;;;;;;;;;1839895;78;21044;-46
2021/09/10 07:50:49;;;;;;;18.40;11.40;;;;;;;;;;1839848;78;21103;-47
2021/09/10 07:53:18;;;;;;;21.40;11.55;;;;;;;;;;1839919;78;21143;-46
2021/09/10 07:55:47;;;;;;;17.75;12.18;;;;;;;;;;1839969;78;21084;-47
2021/09/10 07:58:15;;;;;;;16.15;9.13;;;;;;;;;;1840254;78;21044;-46
2021/09/10 08:00:44;;;;;;;18.55;9.05;;;;;;;;;;1839979;78;21044;-47
2021/09/10 08:03:13;;;;;;;12.90;7.37;;;;;;;;;;1840067;78;21115;-50
2021/09/10 08:05:42;;;;;;;17.27;8.65;;;;;;;;;;1840192;78;21052;-50
2021/09/10 08:08:11;;;;;;;16.30;8.13;;;;;;;;;;1840023;77;21061;-47
2021/09/10 08:10:40;;;;;;;14.50;8.15;;;;;;;;;;1839965;77;21053;-46
2021/09/10 08:13:09;;;;;;;14.28;9.10;;;;;;;;;;1840068;78;21114;-46
2021/09/10 08:15:37;;;;;;;13.45;7.12;;;;;;;;;;1840097;78;21103;-48
2021/09/10 08:18:06;;;;;;;11.25;7.12;;;;;;;;;;1839904;78;21068;-48
2021/09/10 08:20:35;;;;;;;8.85;5.60;;;;;;;;;;1840030;78;21036;-45
2021/09/10 08:23:04;;;;;;;9.78;6.85;;;;;;;;;;1840020;78;21032;-48
2021/09/10 08:25:33;;;;;;;13.32;8.73;;;;;;;;;;1840039;78;21158;-49
2021/09/10 08:28:01;;;;;;;9.90;7.58;;;;;;;;;;1840103;78;21048;-46
2021/09/10 08:30:31;;;;;;;9.38;6.17;;;;;;;;;;1839906;78;21130;-47
2021/09/10 08:33:00;;;;;;;12.15;6.55;;;;;;;;;;1839907;78;21024;-47
2021/09/10 08:35:29;;;;;;;20.45;9.08;;;;;;;;;;1839988;78;21107;-46
2021/09/10 08:37:58;;;;;;;10.40;5.70;;;;;;;;;;1840077;78;21049;-48
2021/09/10 08:40:27;;;;;;;14.00;7.92;;;;;;;;;;1839993;78;21134;-45
2021/09/10 08:42:56;;;;;;;12.20;7.05;;;;;;;;;;1839940;78;21056;-47
2021/09/10 08:45:28;;;;;;;19.52;6.83;;;;;;;;;;1840100;78;21095;-48
2021/09/10 08:47:57;;;;;;;10.03;6.28;;;;;;;;;;1839906;78;21036;-49
2021/09/10 08:50:26;;;;;;;13.40;7.62;;;;;;;;;;1839816;78;21119;-50
2021/09/10 08:52:54;;;;;;;16.20;9.40;;;;;;;;;;1840143;78;21107;-48
2021/09/10 08:55:23;;;;;;;13.15;8.85;;;;;;;;;;1840068;78;21087;-46
2021/09/10 08:57:55;;;;;;;12.00;5.53;;;;;;;;;;1840043;78;21033;-48
2021/09/10 09:00:31;;;;;;;9.13;5.22;;;;;;;;;;1840051;78;21111;-46
2021/09/10 09:03:04;;;;;;;15.35;8.25;;;;;;;;;;1840085;78;21479;-45
2021/09/10 09:05:33;;;;;;;10.82;6.60;;;;;;;;;;1839988;78;21084;-48
2021/09/10 09:08:06;;;;;;;11.15;6.67;;;;;;;;;;1839946;78;21534;-47
2021/09/10 09:10:56;;;;;;;9.73;5.95;;;;;;;;;;1839993;77;21111;-47
2021/09/10 09:13:27;;;;;;;7.17;6.12;;;;;;;;;;1840149;78;21052;-46
2021/09/10 09:16:13;;;;;;;8.18;6.17;;;;;;;;;;1839963;78;21138;-46
2021/09/10 09:18:43;;;;;;;12.95;6.97;;;;;;;;;;1839949;78;21072;-47
2021/09/10 09:21:13;;;;;;;11.57;5.42;;;;;;;;;;1840077;78;21092;-48
2021/09/10 09:23:41;;;;;;;21.73;12.60;;;;;;;;;;1840021;78;21114;-47
2021/09/10 09:26:14;;;;;;;27.62;12.95;;;;;;;;;;1839941;78;21061;-48
2021/09/10 09:28:43;;;;;;;11.00;7.30;;;;;;;;;;1845478;77;21094;-46
2021/09/10 09:31:12;;;;;;;16.50;6.92;;;;;;;;;;1839828;78;21105;-48
2021/09/10 09:33:44;;;;;;;24.12;7.70;;;;;;;;;;1839861;77;21042;-45
2021/09/10 09:36:14;;;;;;;17.55;10.53;;;;;;;;;;1839942;78;21055;-45
2021/09/10 09:38:43;;;;;;;17.82;6.70;;;;;;;;;;1840013;78;21125;-48
2021/09/10 09:41:13;;;;;;;20.00;6.62;;;;;;;;;;1807112;78;21046;-49
2021/09/10 09:43:46;;;;;;;9.28;5.70;;;;;;;;;;1839412;78;21046;-48
2021/09/10 09:46:15;;;;;;;15.13;6.92;;;;;;;;;;1839858;78;21113;-48
2021/09/10 09:48:45;;;;;;;11.22;6.20;;;;;;;;;;1840003;78;21059;-45
2021/09/10 09:51:18;;;;;;;17.90;6.78;;;;;;;;;;1839931;78;21046;-49
2021/09/10 09:53:48;;;;;;;23.62;7.78;;;;;;;;;;1839837;78;21086;-48
2021/09/10 09:56:17;;;;;;;8.65;4.62;;;;;;;;;;1839978;78;21383;-46
2021/09/10 09:58:47;;;;;;;8.93;5.85;;;;;;;;;;1839900;78;21051;-46
2021/09/10 10:01:17;;;;;;;14.07;6.95;;;;;;;;;;1839853;78;21062;-46
2021/09/10 10:03:45;;;;;;;11.53;5.97;;;;;;;;;;1840040;78;21054;-47
2021/09/10 10:06:19;;;;;;;12.23;6.78;;;;;;;;;;1839906;78;21106;-46
2021/09/10 10:08:49;;;;;;;10.70;5.80;;;;;;;;;;1839657;78;21102;-45
2021/09/10 10:11:19;;;;;;;8.08;5.40;;;;;;;;;;1839979;78;21014;-45
2021/09/10 10:13:48;;;;;;;13.35;6.08;;;;;;;;;;1840086;78;21481;-48
2021/09/10 10:16:35;;;;;;;11.83;5.78;;;;;;;;;;1840018;78;21042;-50
2021/09/10 10:19:05;;;;;;;7.67;5.60;;;;;;;;;;1839922;78;21133;-49
2021/09/10 10:21:51;;;;;;;7.00;4.53;;;;;;;;;;1840031;78;22144;-46
2021/09/10 10:24:38;;;;;;;13.88;5.97;;;;;;;;;;1839941;78;21059;-46
2021/09/10 10:27:27;;;;;;;11.75;5.97;;;;;;;;;;1839751;78;21058;-49
2021/09/10 10:29:55;;;;;;;11.75;6.10;;;;;;;;;;1839805;78;21035;-49
2021/09/10 10:32:34;;;;;;;7.87;5.17;;;;;;;;;;1839916;78;21106;-50
2021/09/10 10:35:19;;;;;;;10.20;6.20;;;;;;;;;;1844455;77;21077;-49
2021/09/10 10:37:49;;;;;;;7.50;5.17;;;;;;;;;;1849040;77;21102;-48
2021/09/10 10:40:25;;;;;;;8.75;5.05;;;;;;;;;;1839621;77;21113;-49
2021/09/10 10:42:54;;;;;;;7.87;5.12;;;;;;;;;;1849464;77;21117;-49
2021/09/10 10:45:41;;;;;;;8.30;5.53;;;;;;;;;;1857398;76;21155;-45
2021/09/10 10:48:28;;;;;;;8.68;5.45;;;;;;;;;;1880779;76;21491;-46
2021/09/10 10:51:19;;;;;;;10.48;5.53;;;;;;;;;;1880604;76;21106;-47
2021/09/10 10:53:48;;;;;;;8.15;5.75;;;;;;;;;;1880701;76;21031;-50
2021/09/10 10:56:28;;;;;;;6.42;4.20;;;;;;;;;;1880593;76;21019;-51
2021/09/10 10:59:24;;;;;;;6.47;4.15;;;;;;;;;;1881420;76;21023;-50
2021/09/10 11:02:10;;;;;;;10.25;4.22;;;;;;;;;;1881472;76;21497;-49
2021/09/10 11:04:47;;;;;;;9.93;4.70;;;;;;;;;;1881347;76;21137;-46
2021/09/10 11:07:22;;;;;;;6.65;4.75;;;;;;;;;;1881317;76;21042;-45
2021/09/10 11:09:58;;;;;;;8.03;4.65;;;;;;;;;;1881270;76;21054;-50
2021/09/10 11:12:27;;;;;;;8.60;5.30;;;;;;;;;;1880163;76;21051;-47
2021/09/10 11:14:56;;;;;;;6.72;4.65;;;;;;;;;;1867297;76;21124;-47
2021/09/10 11:17:28;;;;;;;9.55;3.87;;;;;;;;;;1861693;76;21050;-49
2021/09/10 11:19:58;;;;;;;6.85;4.08;;;;;;;;;;1861701;76;21141;-50
2021/09/10 11:22:27;;;;;;;10.68;4.58;;;;;;;;;;1873215;76;21147;-50
2021/09/10 11:25:09;;;;;;;16.67;8.63;;;;;;;;;;1873090;76;21014;-49
2021/09/10 11:27:40;;;;;;;11.25;4.45;;;;;;;;;;1873222;76;21461;-49
2021/09/10 11:30:10;;;;;;;6.17;5.25;;;;;;;;;;1873120;76;21026;-49
2021/09/10 11:32:39;;;;;;;10.53;6.00;;;;;;;;;;1873226;76;21515;-50
2021/09/10 11:35:18;;;;;;;10.93;4.97;;;;;;;;;;1883078;75;21132;-47
2021/09/10 11:38:00;;;;;;;11.35;4.85;;;;;;;;;;1900795;75;21038;-50
2021/09/10 11:40:30;;;;;;;13.25;6.03;;;;;;;;;;1901139;75;21030;-49
2021/09/10 11:43:03;;;;;;;9.03;4.70;;;;;;;;;;1901435;75;21041;-48
2021/09/10 11:45:35;;;;;;;12.20;5.67;;;;;;;;;;1901480;75;21093;-50
2021/09/10 11:48:05;;;;;;;12.40;5.97;;;;;;;;;;1901166;75;21147;-49
2021/09/10 11:50:49;;;;;;;6.65;3.47;;;;;;;;;;1901171;75;21535;-48
2021/09/10 11:53:19;;;;;;;15.00;8.28;;;;;;;;;;1900416;75;21125;-48
2021/09/10 11:55:52;;;;;;;11.55;6.78;;;;;;;;;;1901339;75;21547;-47
2021/09/10 11:58:23;;;;;;;9.10;4.20;;;;;;;;;;1901119;75;21071;-49
2021/09/10 12:00:52;;;;;;;17.35;6.65;;;;;;;;;;1899866;75;21038;-51
2021/09/10 12:03:20;;;;;;;6.40;5.15;;;;;;;;;;1885384;75;21111;-48
2021/09/10 12:05:51;;;;;;;11.60;4.83;;;;;;;;;;1868325;77;21046;-49
2021/09/10 12:08:21;;;;;;;12.80;5.28;;;;;;;;;;1866344;75;21061;-50
2021/09/10 12:10:50;;;;;;;7.80;4.35;;;;;;;;;;1895990;75;21504;-51
2021/09/10 12:13:19;;;;;;;17.12;4.33;;;;;;;;;;1900276;75;21120;-50
2021/09/10 12:15:49;;;;;;;7.85;4.78;;;;;;;;;;1900331;75;21053;-49
2021/09/10 12:18:18;;;;;;;21.73;15.35;;;;;;;;;;1900509;75;21050;-47
2021/09/10 12:20:50;;;;;;;14.23;9.90;;;;;;;;;;1900683;75;21026;-48
2021/09/10 12:23:20;;;;;;;7.35;3.95;;;;;;;;;;1896392;75;21088;-49
2021/09/10 12:26:02;;;;;;;7.37;3.72;;;;;;;;;;1901616;75;21045;-50
2021/09/10 12:28:33;;;;;;;12.05;7.87;;;;;;;;;;1901749;75;21113;-51
2021/09/10 12:31:06;;;;;;;11.38;4.75;;;;;;;;;;1901698;75;21038;-50
2021/09/10 12:33:35;;;;;;;7.53;4.22;;;;;;;;;;1901768;75;21058;-50
2021/09/10 12:36:06;;;;;;;15.32;11.83;;;;;;;;;;1901684;75;21112;-48
2021/09/10 12:38:39;;;;;;;20.15;13.38;;;;;;;;;;1900663;75;21119;-50
2021/09/10 12:41:09;;;;;;;7.05;5.12;;;;;;;;;;1891009;75;21495;-51
2021/09/10 12:43:39;;;;;;;7.72;4.05;;;;;;;;;;1846602;78;21046;-50
2021/09/10 12:46:09;;;;;;;6.40;3.17;;;;;;;;;;1846692;76;21064;-50
2021/09/10 12:48:40;;;;;;;9.85;4.92;;;;;;;;;;1845956;78;21137;-47
2021/09/10 12:51:10;;;;;;;13.00;3.50;;;;;;;;;;1846472;78;21074;-51
2021/09/10 12:53:41;;;;;;;12.15;3.62;;;;;;;;;;1845768;78;21136;-51
2021/09/10 12:56:12;;;;;;;8.70;3.98;;;;;;;;;;1844968;77;21203;-49
2021/09/10 12:58:41;;;;;;;9.00;3.72;;;;;;;;;;1845897;78;21125;-51
2021/09/10 13:01:10;;;;;;;10.70;4.12;;;;;;;;;;1846057;78;21097;-50
2021/09/10 13:03:38;;;;;;;6.90;3.83;;;;;;;;;;1846071;78;21054;-52
2021/09/10 13:06:08;;;;;;;6.67;3.33;;;;;;;;;;1846003;78;21132;-51
2021/09/10 13:08:37;;;;;;;8.23;4.65;;;;;;;;;;1845928;78;21042;-51
2021/09/10 13:11:07;;;;;;;10.40;3.90;;;;;;;;;;1846240;78;21066;-51
2021/09/10 13:13:37;;;;;;;13.35;5.05;;;;;;;;;;1845438;78;21070;-50
2021/09/10 13:16:07;;;;;;;8.33;3.77;;;;;;;;;;1845947;78;21172;-51
2021/09/10 13:18:36;;;;;;;17.50;9.90;;;;;;;;;;1846167;78;21191;-52
2021/09/10 13:21:05;;;;;;;79.77;59.70;;;;;;;;;;1846131;78;21062;-49
2021/09/10 13:23:34;;;;;;;13.75;6.60;;;;;;;;;;1846361;78;21164;-50
2021/09/10 13:26:04;;;;;;;5.97;4.00;;;;;;;;;;1845430;78;21101;-50
2021/09/10 13:28:33;;;;;;;8.30;4.85;;;;;;;;;;1846415;78;21058;-51
2021/09/10 13:31:02;;;;;;;6.85;3.52;;;;;;;;;;1846456;78;21059;-51
2021/09/10 13:33:32;;;;;;;7.22;3.08;;;;;;;;;;1846508;78;21059;-52
2021/09/10 13:36:02;;;;;;;9.50;5.12;;;;;;;;;;1841225;78;21154;-52
2021/09/10 13:38:33;;;;;;;8.43;3.72;;;;;;;;;;1831521;78;21126;-51
2021/09/10 13:41:03;;;;;;;12.43;3.58;;;;;;;;;;1831606;78;21454;-52
2021/09/10 13:43:32;;;;;;;6.92;3.98;;;;;;;;;;1831480;78;21071;-53
2021/09/10 13:46:01;;;;;;;8.90;3.98;;;;;;;;;;1831884;78;21035;-52
2021/09/10 13:48:30;;;;;;;9.45;4.33;;;;;;;;;;1831704;78;21078;-51
2021/09/10 13:51:00;;;;;;;8.60;3.80;;;;;;;;;;1831657;78;21043;-53
2021/09/10 13:53:30;;;;;;;11.88;4.55;;;;;;;;;;1831104;78;21165;-52
2021/09/10 13:56:00;;;;;;;17.52;10.23;;;;;;;;;;1831473;78;21087;-52
2021/09/10 13:58:29;;;;;;;13.00;5.50;;;;;;;;;;1831752;78;21035;-51
2021/09/10 14:00:59;;;;;;;9.20;5.37;;;;;;;;;;1831911;78;21047;-50
2021/09/10 14:03:28;;;;;;;7.05;3.05;;;;;;;;;;1831708;78;21055;-52
2021/09/10 14:05:57;;;;;;;10.93;4.50;;;;;;;;;;1831685;78;21031;-51
2021/09/10 14:08:27;;;;;;;10.23;5.28;;;;;;;;;;1831685;78;21059;-51
2021/09/10 14:10:56;;;;;;;17.35;7.37;;;;;;;;;;1831697;78;21550;-52
2021/09/10 14:13:25;;;;;;;14.15;4.60;;;;;;;;;;1831572;78;21169;-52
2021/09/10 14:15:54;;;;;;;9.53;4.47;;;;;;;;;;1831605;78;21125;-52
2021/09/10 14:18:23;;;;;;;18.35;6.15;;;;;;;;;;1831563;78;21050;-52
2021/09/10 14:20:53;;;;;;;18.90;5.15;;;;;;;;;;1831598;78;21063;-53
2021/09/10 14:23:23;;;;;;;11.68;4.15;;;;;;;;;;1831597;78;21063;-52
2021/09/10 14:25:53;;;;;;;5.62;2.80;;;;;;;;;;1831556;78;21071;-51
2021/09/10 14:28:21;;;;;;;16.32;9.40;;;;;;;;;;1831557;78;21141;-51
2021/09/10 14:30:50;;;;;;;18.60;8.80;;;;;;;;;;1831633;78;21055;-51
2021/09/10 14:33:19;;;;;;;19.60;10.05;;;;;;;;;;1831400;78;21051;-51
2021/09/10 14:35:48;;;;;;;21.42;7.55;;;;;;;;;;1831156;78;21055;-52
2021/09/10 14:38:17;;;;;;;18.25;6.05;;;;;;;;;;1873001;76;21485;-53
2021/09/10 14:40:45;;;;;;;18.62;6.33;;;;;;;;;;1872878;76;21094;-51
2021/09/10 14:43:14;;;;;;;19.85;6.37;;;;;;;;;;1872981;77;21051;-53
2021/09/10 14:45:43;;;;;;;11.80;5.80;;;;;;;;;;1872862;77;21172;-53